Marten — 5BNU3 — position and weather

sailwx.info

Track history (hours):
 
Tides and Currents Weather Stations Pressure Air Temp Water Temp Dewpoint Dewpoint Depression Visibility Wind Speed Wind Dir Waves Ship Positions

Marten

Last reported at 2017-Aug-24 05:42 UTC. Time now 2017-Aug-24 10:26 UTC.
Position N 57°29' E 008°44'.

Length 90 m; draft 5.7 m.

Type: Ship. MMSI: 212376000.

Date/timePositionNaut miles runAvg speedWind from/ knotsBaromVisibWave heightAir tempDewpointWater temp
2017-Aug-24 05:42N 57°29' E 008°44'6310.1
2017-Aug-23 23:31N 58°22' E 009°47'211.0
2017-Aug-23 23:21N 58°24' E 009°49'410.7
2017-Aug-23 23:00N 58°27' E 009°53'1310.6
2017-Aug-23 21:48N 58°38' E 010°05'310.2
2017-Aug-23 21:30N 58°40' E 010°08'510.0
2017-Aug-23 20:59N 58°45' E 010°14'510.3
2017-Aug-23 20:30N 58°49' E 010°19'510.2
2017-Aug-23 20:00N 58°53' E 010°24'510.1
2017-Aug-23 19:30N 58°57' E 010°29'510.1
2017-Aug-23 19:00N 59°02' E 010°33'4 8.7
2017-Aug-23 18:30N 59°05' E 010°28'5 9.9
2017-Aug-23 18:00N 59°10' E 010°28'510.1
2017-Aug-23 17:30N 59°15' E 010°31'510.2
2017-Aug-23 17:00N 59°20' E 010°31'510.4
2017-Aug-23 16:30N 59°25' E 010°30'510.4
2017-Aug-23 16:00N 59°30' E 010°26'510.0
2017-Aug-23 15:30N 59°35' E 010°25'5 9.5
2017-Aug-23 15:00N 59°40' E 010°23'510.2
2017-Aug-23 14:29N 59°44' E 010°16'1 1.3
2017-Aug-23 13:29N 59°45' E 010°15'0 0.0
2017-Aug-23 12:59N 59°45' E 010°15'0 0.0
2017-Aug-23 12:29N 59°45' E 010°15'0 0.0
2017-Aug-23 11:59N 59°45' E 010°15'0 0.0
2017-Aug-23 11:29N 59°45' E 010°15'0 0.0
2017-Aug-23 10:59N 59°45' E 010°15'0 0.0
2017-Aug-23 10:29N 59°45' E 010°15'0 0.0
2017-Aug-23 09:59N 59°45' E 010°15'0 0.0
2017-Aug-23 09:29N 59°45' E 010°15'0 0.0
2017-Aug-23 08:59N 59°45' E 010°15'0 0.0
2017-Aug-23 08:29N 59°45' E 010°15'0 0.0
2017-Aug-23 07:59N 59°45' E 010°15'0 0.0
2017-Aug-23 07:29N 59°45' E 010°15'0 0.0
2017-Aug-23 06:59N 59°45' E 010°15'0 0.0
2017-Aug-23 06:29N 59°45' E 010°15'0 0.0
2017-Aug-23 05:59N 59°45' E 010°15'0 0.1
2017-Aug-23 05:30N 59°45' E 010°15'1 3.0
2017-Aug-23 05:00N 59°44' E 010°17'511.1
2017-Aug-23 04:30N 59°40' E 010°24'5 9.1
2017-Aug-23 04:00N 59°35' E 010°26'510.6
2017-Aug-23 03:30N 59°30' E 010°27'611.3
2017-Aug-23 03:00N 59°25' E 010°33'510.7
2017-Aug-23 02:30N 59°20' E 010°36'510.8
2017-Aug-23 02:00N 59°15' E 010°38'510.8
2017-Aug-23 01:30N 59°09' E 010°39'510.9
2017-Aug-23 01:00N 59°05' E 010°34'5 9.1
2017-Aug-23 00:30N 59°00' E 010°34'5 9.2
2017-Aug-23 00:00N 58°57' E 010°26'611.1
2017-Aug-22 23:30N 58°56' E 010°16'510.9
2017-Aug-22 23:00N 58°55' E 010°05'510.7
2017-Aug-22 22:30N 58°55' E 009°55'510.0
2017-Aug-22 22:00N 58°57' E 009°47'3 0.1
2017-Aug-20 18:54N 59°00' E 009°47'4 9.4
2017-Aug-20 18:30N 58°57' E 009°47'5 9.0
2017-Aug-20 17:59N 58°53' E 009°42'4 9.0
2017-Aug-20 17:29N 58°49' E 009°37'5 9.2
2017-Aug-20 17:00N 58°46' E 009°31'5 9.3
2017-Aug-20 16:30N 58°42' E 009°26'5 9.3
2017-Aug-20 16:00N 58°39' E 009°20'5 9.3
2017-Aug-20 15:30N 58°35' E 009°14'5 9.3
2017-Aug-20 15:00N 58°32' E 009°08'5 9.3
2017-Aug-20 14:30N 58°28' E 009°02'5 9.3
2017-Aug-20 14:00N 58°25' E 008°56'5 9.7
2017-Aug-20 13:30N 58°21' E 008°49'5 9.9
2017-Aug-20 13:00N 58°18' E 008°43'5 9.9
2017-Aug-20 12:30N 58°14' E 008°36'510.2
2017-Aug-20 12:00N 58°11' E 008°29'5 9.9
2017-Aug-20 11:30N 58°07' E 008°22'5 9.8
2017-Aug-20 11:00N 58°04' E 008°16'5 9.5
2017-Aug-20 10:29N 58°01' E 008°09'5 9.1
2017-Aug-20 10:00N 57°58' E 008°03'4 8.8
2017-Aug-20 09:30N 57°55' E 007°56'4 8.8
2017-Aug-20 09:00N 57°52' E 007°50'4 8.8
2017-Aug-20 08:29N 57°49' E 007°44'4 9.0
2017-Aug-20 08:00N 57°46' E 007°38'4 8.7
2017-Aug-20 07:30N 57°43' E 007°32'355 9.9
2017-Aug-18 19:38N 53°35' E 000°04'312.3
2017-Aug-18 19:24N 53°35' W 000°01'512.7
2017-Aug-18 19:00N 53°38' W 000°08'2 0.2
2017-Aug-18 10:30N 53°38' W 000°12'0 0.0
2017-Aug-18 07:18N 53°38' W 000°12'0 0.0
2017-Aug-18 00:15N 53°38' W 000°12'0 1.0
2017-Aug-18 00:00N 53°38' W 000°12'0 0.4
2017-Aug-17 23:30N 53°38' W 000°11'0 0.6
2017-Aug-17 23:00N 53°38' W 000°11'1 2.3
2017-Aug-17 22:30N 53°38' W 000°09'612.0
2017-Aug-17 22:01N 53°36' W 000°00'50 2.7
2017-Aug-17 03:20N 53°04' E 001°04'310.3
2017-Aug-17 03:00N 53°02' E 001°09'510.1
2017-Aug-17 02:30N 53°00' E 001°17'5 9.7
2017-Aug-17 02:00N 52°58' E 001°24'5 9.6
2017-Aug-17 01:31N 52°56' E 001°31'510.0
2017-Aug-17 01:00N 52°52' E 001°37'510.6
2017-Aug-17 00:30N 52°49' E 001°44'611.0
2017-Aug-17 00:00N 52°45' E 001°51'612.0
2017-Aug-16 23:31N 52°41' E 001°57'712.7
2017-Aug-16 22:57N 52°34' E 001°56'813.6
2017-Aug-16 22:22N 52°26' E 001°54'513.5
2017-Aug-16 22:00N 52°21' E 001°53'713.6
2017-Aug-16 21:29N 52°14' E 001°52'713.6
2017-Aug-16 21:00N 52°07' E 001°50'713.9
2017-Aug-16 20:31N 52°00' E 001°49'713.5
2017-Aug-16 20:00N 51°54' E 001°48'5 9.8
2017-Aug-16 19:30N 51°50' E 001°43'612.3
2017-Aug-16 19:01N 51°49' E 001°33'612.9
2017-Aug-16 18:30N 51°44' E 001°25'612.0
2017-Aug-16 18:00N 51°40' E 001°18'611.8
2017-Aug-16 17:30N 51°36' E 001°12'611.0
2017-Aug-16 17:00N 51°33' E 001°04'5 9.2
2017-Aug-16 16:29N 51°30' E 000°58'0 0.0
2017-Aug-16 15:53N 51°30' E 000°58'0 0.0
2017-Aug-16 15:20N 51°30' E 000°58'0 0.0
2017-Aug-16 14:44N 51°30' E 000°58'0 0.1
2017-Aug-16 14:23N 51°30' E 000°58'0 0.0
2017-Aug-16 07:08N 51°30' E 000°58'0 0.1
2017-Aug-16 05:35N 51°30' E 000°58'0 0.0
2017-Aug-16 05:26N 51°30' E 000°58'0 0.0
2017-Aug-16 01:41N 51°30' E 000°58'0 0.1
2017-Aug-16 01:23N 51°30' E 000°58'0 0.0
2017-Aug-15 18:53N 51°30' E 000°58'0 0.0
2017-Aug-15 12:47N 51°30' E 000°58'0 0.0
2017-Aug-15 09:59N 51°30' E 000°58'0 0.0
2017-Aug-15 03:38N 51°30' E 000°58'0 0.1
2017-Aug-15 03:29N 51°30' E 000°58'0 0.0
2017-Aug-15 02:59N 51°30' E 000°58'0 0.0
2017-Aug-15 02:05N 51°30' E 000°58'0 0.0
2017-Aug-15 01:47N 51°30' E 000°58'0 0.0
2017-Aug-15 01:26N 51°30' E 000°58'0 0.0
2017-Aug-15 00:53N 51°30' E 000°58'0 0.0
2017-Aug-14 21:38N 51°30' E 000°58'0 0.0
2017-Aug-14 21:29N 51°30' E 000°58'0 0.0
2017-Aug-14 19:47N 51°30' E 000°58'0 0.0
2017-Aug-14 19:17N 51°30' E 000°58'0 0.0
2017-Aug-14 18:59N 51°30' E 000°58'0 0.0
2017-Aug-14 17:02N 51°30' E 000°58'0 0.1
2017-Aug-14 16:56N 51°30' E 000°58'0 0.1
2017-Aug-14 16:29N 51°30' E 000°58'0 0.0
2017-Aug-14 15:44N 51°30' E 000°58'0 0.0
2017-Aug-14 13:56N 51°30' E 000°58'0 0.0
2017-Aug-14 13:26N 51°30' E 000°58'0 0.0
2017-Aug-14 11:02N 51°30' E 000°58'  
Track history (hours):
 
Tides and Currents Weather Stations Pressure Air Temp Water Temp Dewpoint Dewpoint Depression Visibility Wind Speed Wind Dir Waves Ship Positions

Marten

Last reported at 2017-Aug-24 05:42 UTC. Time now 2017-Aug-24 10:26 UTC.
Position N 57°29' E 008°44'.

Length 90 m; draft 5.7 m.

Type: Ship. MMSI: 212376000.

Date/timePositionNaut miles runAvg speedWind from/ knotsBaromVisibWave heightAir tempDewpointWater temp
2017-Aug-24 05:42N 57°29' E 008°44'6310.1
2017-Aug-23 23:31N 58°22' E 009°47'211.0
2017-Aug-23 23:21N 58°24' E 009°49'410.7
2017-Aug-23 23:00N 58°27' E 009°53'1310.6
2017-Aug-23 21:48N 58°38' E 010°05'310.2
2017-Aug-23 21:30N 58°40' E 010°08'510.0
2017-Aug-23 20:59N 58°45' E 010°14'510.3
2017-Aug-23 20:30N 58°49' E 010°19'510.2
2017-Aug-23 20:00N 58°53' E 010°24'510.1
2017-Aug-23 19:30N 58°57' E 010°29'510.1
2017-Aug-23 19:00N 59°02' E 010°33'4 8.7
2017-Aug-23 18:30N 59°05' E 010°28'5 9.9
2017-Aug-23 18:00N 59°10' E 010°28'510.1
2017-Aug-23 17:30N 59°15' E 010°31'510.2
2017-Aug-23 17:00N 59°20' E 010°31'510.4
2017-Aug-23 16:30N 59°25' E 010°30'510.4
2017-Aug-23 16:00N 59°30' E 010°26'510.0
2017-Aug-23 15:30N 59°35' E 010°25'5 9.5
2017-Aug-23 15:00N 59°40' E 010°23'510.2
2017-Aug-23 14:29N 59°44' E 010°16'1 1.3
2017-Aug-23 13:29N 59°45' E 010°15'0 0.0
2017-Aug-23 12:59N 59°45' E 010°15'0 0.0
2017-Aug-23 12:29N 59°45' E 010°15'0 0.0
2017-Aug-23 11:59N 59°45' E 010°15'0 0.0
2017-Aug-23 11:29N 59°45' E 010°15'0 0.0
2017-Aug-23 10:59N 59°45' E 010°15'0 0.0
2017-Aug-23 10:29N 59°45' E 010°15'0 0.0
2017-Aug-23 09:59N 59°45' E 010°15'0 0.0
2017-Aug-23 09:29N 59°45' E 010°15'0 0.0
2017-Aug-23 08:59N 59°45' E 010°15'0 0.0
2017-Aug-23 08:29N 59°45' E 010°15'0 0.0
2017-Aug-23 07:59N 59°45' E 010°15'0 0.0
2017-Aug-23 07:29N 59°45' E 010°15'0 0.0
2017-Aug-23 06:59N 59°45' E 010°15'0 0.0
2017-Aug-23 06:29N 59°45' E 010°15'0 0.0
2017-Aug-23 05:59N 59°45' E 010°15'0 0.1
2017-Aug-23 05:30N 59°45' E 010°15'1 3.0
2017-Aug-23 05:00N 59°44' E 010°17'511.1
2017-Aug-23 04:30N 59°40' E 010°24'5 9.1
2017-Aug-23 04:00N 59°35' E 010°26'510.6
2017-Aug-23 03:30N 59°30' E 010°27'611.3
2017-Aug-23 03:00N 59°25' E 010°33'510.7
2017-Aug-23 02:30N 59°20' E 010°36'510.8
2017-Aug-23 02:00N 59°15' E 010°38'510.8
2017-Aug-23 01:30N 59°09' E 010°39'510.9
2017-Aug-23 01:00N 59°05' E 010°34'5 9.1
2017-Aug-23 00:30N 59°00' E 010°34'5 9.2
2017-Aug-23 00:00N 58°57' E 010°26'611.1
2017-Aug-22 23:30N 58°56' E 010°16'510.9
2017-Aug-22 23:00N 58°55' E 010°05'510.7
2017-Aug-22 22:30N 58°55' E 009°55'510.0
2017-Aug-22 22:00N 58°57' E 009°47'3 0.1
2017-Aug-20 18:54N 59°00' E 009°47'4 9.4
2017-Aug-20 18:30N 58°57' E 009°47'5 9.0
2017-Aug-20 17:59N 58°53' E 009°42'4 9.0
2017-Aug-20 17:29N 58°49' E 009°37'5 9.2
2017-Aug-20 17:00N 58°46' E 009°31'5 9.3
2017-Aug-20 16:30N 58°42' E 009°26'5 9.3
2017-Aug-20 16:00N 58°39' E 009°20'5 9.3
2017-Aug-20 15:30N 58°35' E 009°14'5 9.3
2017-Aug-20 15:00N 58°32' E 009°08'5 9.3
2017-Aug-20 14:30N 58°28' E 009°02'5 9.3
2017-Aug-20 14:00N 58°25' E 008°56'5 9.7
2017-Aug-20 13:30N 58°21' E 008°49'5 9.9
2017-Aug-20 13:00N 58°18' E 008°43'5 9.9
2017-Aug-20 12:30N 58°14' E 008°36'510.2
2017-Aug-20 12:00N 58°11' E 008°29'5 9.9
2017-Aug-20 11:30N 58°07' E 008°22'5 9.8
2017-Aug-20 11:00N 58°04' E 008°16'5 9.5
2017-Aug-20 10:29N 58°01' E 008°09'5 9.1
2017-Aug-20 10:00N 57°58' E 008°03'4 8.8
2017-Aug-20 09:30N 57°55' E 007°56'4 8.8
2017-Aug-20 09:00N 57°52' E 007°50'4 8.8
2017-Aug-20 08:29N 57°49' E 007°44'4 9.0
2017-Aug-20 08:00N 57°46' E 007°38'4 8.7
2017-Aug-20 07:30N 57°43' E 007°32'355 9.9
2017-Aug-18 19:38N 53°35' E 000°04'312.3
2017-Aug-18 19:24N 53°35' W 000°01'512.7
2017-Aug-18 19:00N 53°38' W 000°08'2 0.2
2017-Aug-18 10:30N 53°38' W 000°12'0 0.0
2017-Aug-18 07:18N 53°38' W 000°12'0 0.0
2017-Aug-18 00:15N 53°38' W 000°12'0 1.0
2017-Aug-18 00:00N 53°38' W 000°12'0 0.4
2017-Aug-17 23:30N 53°38' W 000°11'0 0.6
2017-Aug-17 23:00N 53°38' W 000°11'1 2.3
2017-Aug-17 22:30N 53°38' W 000°09'612.0
2017-Aug-17 22:01N 53°36' W 000°00'50 2.7
2017-Aug-17 03:20N 53°04' E 001°04'310.3
2017-Aug-17 03:00N 53°02' E 001°09'510.1
2017-Aug-17 02:30N 53°00' E 001°17'5 9.7
2017-Aug-17 02:00N 52°58' E 001°24'5 9.6
2017-Aug-17 01:31N 52°56' E 001°31'510.0
2017-Aug-17 01:00N 52°52' E 001°37'510.6
2017-Aug-17 00:30N 52°49' E 001°44'611.0
2017-Aug-17 00:00N 52°45' E 001°51'612.0
2017-Aug-16 23:31N 52°41' E 001°57'712.7
2017-Aug-16 22:57N 52°34' E 001°56'813.6
2017-Aug-16 22:22N 52°26' E 001°54'513.5
2017-Aug-16 22:00N 52°21' E 001°53'713.6
2017-Aug-16 21:29N 52°14' E 001°52'713.6
2017-Aug-16 21:00N 52°07' E 001°50'713.9
2017-Aug-16 20:31N 52°00' E 001°49'713.5
2017-Aug-16 20:00N 51°54' E 001°48'5 9.8
2017-Aug-16 19:30N 51°50' E 001°43'612.3
2017-Aug-16 19:01N 51°49' E 001°33'612.9
2017-Aug-16 18:30N 51°44' E 001°25'612.0
2017-Aug-16 18:00N 51°40' E 001°18'611.8
2017-Aug-16 17:30N 51°36' E 001°12'611.0
2017-Aug-16 17:00N 51°33' E 001°04'5 9.2
2017-Aug-16 16:29N 51°30' E 000°58'0 0.0
2017-Aug-16 15:53N 51°30' E 000°58'0 0.0
2017-Aug-16 15:20N 51°30' E 000°58'0 0.0
2017-Aug-16 14:44N 51°30' E 000°58'0 0.1
2017-Aug-16 14:23N 51°30' E 000°58'0 0.0
2017-Aug-16 07:08N 51°30' E 000°58'0 0.1
2017-Aug-16 05:35N 51°30' E 000°58'0 0.0
2017-Aug-16 05:26N 51°30' E 000°58'0 0.0
2017-Aug-16 01:41N 51°30' E 000°58'0 0.1
2017-Aug-16 01:23N 51°30' E 000°58'0 0.0
2017-Aug-15 18:53N 51°30' E 000°58'0 0.0
2017-Aug-15 12:47N 51°30' E 000°58'0 0.0
2017-Aug-15 09:59N 51°30' E 000°58'0 0.0
2017-Aug-15 03:38N 51°30' E 000°58'0 0.1
2017-Aug-15 03:29N 51°30' E 000°58'0 0.0
2017-Aug-15 02:59N 51°30' E 000°58'0 0.0
2017-Aug-15 02:05N 51°30' E 000°58'0 0.0
2017-Aug-15 01:47N 51°30' E 000°58'0 0.0
2017-Aug-15 01:26N 51°30' E 000°58'0 0.0
2017-Aug-15 00:53N 51°30' E 000°58'0 0.0
2017-Aug-14 21:38N 51°30' E 000°58'0 0.0
2017-Aug-14 21:29N 51°30' E 000°58'0 0.0
2017-Aug-14 19:47N 51°30' E 000°58'0 0.0
2017-Aug-14 19:17N 51°30' E 000°58'0 0.0
2017-Aug-14 18:59N 51°30' E 000°58'0 0.0
2017-Aug-14 17:02N 51°30' E 000°58'0 0.1
2017-Aug-14 16:56N 51°30' E 000°58'0 0.1
2017-Aug-14 16:29N 51°30' E 000°58'0 0.0
2017-Aug-14 15:44N 51°30' E 000°58'0 0.0
2017-Aug-14 13:56N 51°30' E 000°58'0 0.0
2017-Aug-14 13:26N 51°30' E 000°58'0 0.0
2017-Aug-14 11:02N 51°30' E 000°58'  

Dump ship's entire track history